Arkansas International Airport Blytheville US
ICAO: KBYH
IATA: BYH
Category: Medium
Scheduled Services: No

Elevation: 254 ft
TransAlt. 18000 ft.

Airport Communications:
MEMPHIS CNTR:134.65
CTAF/UNICOM:122.7

KBYH Zoom In..

If you have problems with the map follow the link
https://www.worldairports.se/pages/airport.php?
ICAO=KBYH

Runways:

(A) RW 18 length 11602 ft width 150 ft
ILS 110.30 / hdg 179

(B) RW 36 length 11602 ft width 150 ft
---- / hdg 359

Location; KBYH
Day. 06 / Time. 21.50 Zulu
* Altimeter: 30.19
* Temperature: 11° c. 51.8°f.
* Wind from: 020° Speed 16 kn with Gusts up to 24 kn.
Dewpoint: 06° c.
Visibility: 6 Statute Miles.
Clouds: Clear (manual report).
Conditions: Haze.

KBYH 062150Z 02016G24KT 6SM HZ SKC 11/06 A3019 RMK LAST


Wind From 020°
Speed 16 kn.

 
 
jpsmedia worldairports.se 2019   terms of use